createdAt,value
2023-04-03T00:01:04.912Z,9.47
2023-04-03T00:03:31.616Z,9.83
2023-04-03T00:05:58.857Z,9.37
2023-04-03T00:08:25.968Z,9.07
2023-04-03T00:10:53.079Z,10.17
2023-04-03T00:13:19.896Z,9.47
2023-04-03T00:15:46.677Z,8.63
2023-04-03T00:18:13.430Z,8.47
2023-04-03T00:20:40.946Z,8.47
2023-04-03T00:23:08.008Z,9.53
2023-04-03T00:25:35.837Z,8.83
2023-04-03T00:28:03.323Z,9.13
2023-04-03T00:30:30.368Z,8.47
2023-04-03T00:32:57.718Z,9.10
2023-04-03T00:35:26.000Z,9.30
2023-04-03T00:37:54.723Z,9.07
2023-04-03T00:40:25.181Z,8.53
2023-04-03T00:42:59.296Z,8.83
2023-04-03T00:45:47.802Z,8.80
2023-04-03T00:48:22.701Z,8.87
2023-04-03T00:50:50.935Z,7.57
2023-04-03T00:53:22.555Z,8.73
2023-04-03T00:55:51.081Z,8.27
2023-04-03T00:58:22.411Z,8.13
2023-04-03T01:00:58.528Z,8.23
2023-04-03T01:03:26.401Z,8.37
2023-04-03T01:05:55.083Z,8.00
2023-04-03T01:08:21.846Z,7.83
2023-04-03T01:10:49.750Z,8.63
2023-04-03T01:13:43.777Z,8.30
2023-04-03T01:16:12.320Z,7.83
2023-04-03T01:18:41.579Z,8.30
2023-04-03T01:21:32.208Z,8.17
2023-04-03T01:24:17.320Z,7.87
2023-04-03T01:26:44.816Z,7.60
2023-04-03T01:29:12.542Z,8.03
2023-04-03T01:31:57.623Z,7.80
2023-04-03T01:34:25.647Z,7.77
2023-04-03T01:36:53.533Z,7.83
2023-04-03T01:39:22.036Z,7.93
2023-04-03T01:41:50.186Z,8.30
2023-04-03T01:44:43.408Z,8.03
2023-04-03T01:47:10.382Z,7.67
2023-04-03T01:49:39.371Z,7.97
2023-04-03T01:52:06.812Z,7.80
2023-04-03T01:54:33.921Z,7.70
2023-04-03T01:57:01.116Z,8.70
2023-04-03T01:59:28.032Z,8.00
2023-04-03T02:01:55.123Z,7.73
2023-04-03T02:04:22.415Z,8.33
2023-04-03T02:06:49.467Z,8.20
2023-04-03T02:09:16.380Z,7.63
2023-04-03T02:11:43.086Z,8.07
2023-04-03T02:14:10.875Z,8.00
2023-04-03T02:16:37.829Z,8.07
2023-04-03T02:19:04.711Z,8.37
2023-04-03T02:21:31.651Z,8.50
2023-04-03T02:23:58.385Z,8.67
2023-04-03T02:26:26.168Z,7.70
2023-04-03T02:28:53.525Z,8.43
2023-04-03T02:31:20.466Z,9.10
2023-04-03T02:33:47.743Z,7.93
2023-04-03T02:36:16.286Z,7.90
2023-04-03T02:38:47.675Z,7.57
2023-04-03T02:41:14.447Z,8.07
2023-04-03T02:43:41.367Z,7.97
2023-04-03T02:46:09.098Z,8.93
2023-04-03T02:48:36.633Z,8.33
2023-04-03T02:51:03.462Z,8.33
2023-04-03T02:53:30.384Z,8.87
2023-04-03T02:55:58.673Z,8.13
2023-04-03T02:58:25.485Z,9.20
2023-04-03T03:00:55.107Z,8.40
2023-04-03T03:03:22.203Z,8.57
2023-04-03T03:05:49.211Z,8.17
2023-04-03T03:08:16.317Z,7.93
2023-04-03T03:10:43.565Z,8.23
2023-04-03T03:13:10.311Z,7.90
2023-04-03T03:15:37.309Z,8.20
2023-04-03T03:18:04.347Z,8.00
2023-04-03T03:20:31.055Z,8.23
2023-04-03T03:22:58.880Z,9.03
2023-04-03T03:25:25.826Z,7.53
2023-04-03T03:27:52.798Z,8.63
2023-04-03T03:30:19.577Z,8.13
2023-04-03T03:32:46.888Z,7.90
2023-04-03T03:35:14.223Z,7.83
2023-04-03T03:37:41.147Z,8.30
2023-04-03T03:40:09.074Z,7.77
2023-04-03T03:42:37.063Z,8.57
2023-04-03T03:45:04.932Z,9.00
2023-04-03T03:47:32.086Z,8.83
2023-04-03T03:49:59.328Z,8.00
2023-04-03T03:52:27.714Z,8.00
2023-04-03T03:54:54.889Z,8.30
2023-04-03T03:57:21.845Z,8.53
2023-04-03T03:59:49.907Z,8.63
2023-04-03T04:02:18.706Z,8.23
2023-04-03T04:04:45.593Z,8.50
2023-04-03T04:07:14.221Z,9.87
2023-04-03T04:09:41.657Z,7.90
2023-04-03T04:12:09.635Z,9.00
2023-04-03T04:14:36.930Z,7.80
2023-04-03T04:17:04.694Z,8.70
2023-04-03T04:19:31.625Z,8.00
2023-04-03T04:21:59.171Z,8.03
2023-04-03T04:24:26.996Z,8.10
2023-04-03T04:26:56.134Z,7.67
2023-04-03T04:29:24.125Z,7.60
2023-04-03T04:31:52.134Z,7.83
2023-04-03T04:34:18.932Z,7.90
2023-04-03T04:36:45.942Z,7.77
2023-04-03T04:39:13.312Z,7.33
2023-04-03T04:41:40.860Z,8.00
2023-04-03T04:44:09.400Z,7.97
2023-04-03T04:46:36.739Z,7.50
2023-04-03T04:49:05.294Z,7.63
2023-04-03T04:51:41.177Z,7.90
2023-04-03T04:54:16.956Z,8.13
2023-04-03T04:56:44.935Z,7.70
2023-04-03T04:59:12.069Z,7.77
2023-04-03T05:01:39.904Z,7.73
2023-04-03T05:04:16.198Z,7.60
2023-04-03T05:06:45.605Z,7.13
2023-04-03T05:09:17.105Z,8.13
2023-04-03T05:11:46.076Z,7.97
2023-04-03T05:14:15.286Z,7.87
2023-04-03T05:16:42.240Z,7.50
2023-04-03T05:19:09.590Z,8.10
2023-04-03T05:21:37.710Z,7.57
2023-04-03T05:24:10.437Z,8.40
2023-04-03T05:26:40.396Z,7.27
2023-04-03T05:29:08.046Z,8.20
2023-04-03T05:31:35.420Z,7.83
2023-04-03T05:34:02.316Z,7.67
2023-04-03T05:36:31.238Z,7.77
2023-04-03T05:39:03.352Z,8.40
2023-04-03T05:41:30.487Z,7.70
2023-04-03T05:43:57.278Z,8.10
2023-04-03T05:46:25.628Z,7.90
2023-04-03T05:48:55.617Z,7.30
2023-04-03T05:51:33.717Z,7.60
2023-04-03T05:54:17.318Z,8.17
2023-04-03T05:56:45.174Z,6.90
2023-04-03T05:59:12.171Z,8.40
2023-04-03T06:01:39.837Z,7.50
2023-04-03T06:04:06.747Z,7.57
2023-04-03T06:06:54.974Z,7.00
2023-04-03T06:09:24.269Z,7.40
2023-04-03T06:11:51.406Z,7.17
2023-04-03T06:14:18.517Z,7.17
2023-04-03T06:16:46.083Z,7.00
2023-04-03T06:19:13.382Z,7.07
2023-04-03T06:21:46.684Z,6.33
2023-04-03T06:24:16.727Z,6.90
2023-04-03T06:26:44.473Z,6.73
2023-04-03T06:29:11.283Z,6.83
2023-04-03T06:31:38.195Z,7.20
2023-04-03T06:34:06.788Z,6.80
2023-04-03T06:36:35.659Z,6.40
2023-04-03T06:39:04.056Z,6.57
2023-04-03T06:41:31.594Z,5.73
2023-04-03T06:43:59.306Z,5.73
2023-04-03T06:46:27.844Z,5.80
2023-04-03T06:48:55.028Z,5.57
2023-04-03T06:51:29.497Z,6.10
2023-04-03T06:53:59.556Z,5.60
2023-04-03T06:56:27.855Z,5.90
2023-04-03T06:58:58.827Z,5.53
2023-04-03T07:01:31.061Z,5.47
2023-04-03T07:03:58.025Z,5.27
2023-04-03T07:06:28.080Z,5.73
2023-04-03T07:08:56.307Z,5.10
2023-04-03T07:11:23.584Z,5.90
2023-04-03T07:13:51.389Z,5.27
2023-04-03T07:16:18.444Z,5.10
2023-04-03T07:18:46.649Z,5.17
2023-04-03T07:21:14.123Z,6.10
2023-04-03T07:23:41.540Z,4.70
2023-04-03T07:26:09.110Z,5.10
2023-04-03T07:28:37.691Z,4.60
2023-04-03T07:31:09.513Z,4.93
2023-04-03T07:33:38.284Z,5.00
2023-04-03T07:36:07.896Z,4.77
2023-04-03T07:38:36.502Z,4.50
2023-04-03T07:41:04.560Z,4.23
2023-04-03T07:43:31.509Z,4.20
2023-04-03T07:45:58.262Z,4.20
2023-04-03T07:48:27.487Z,4.60
2023-04-03T07:50:54.365Z,4.03
2023-04-03T07:53:21.118Z,4.50
2023-04-03T07:55:48.523Z,4.07
2023-04-03T07:58:18.122Z,4.40
2023-04-03T08:00:46.256Z,4.50
2023-04-03T08:03:13.956Z,4.43
2023-04-03T08:05:43.223Z,4.60
2023-04-03T08:08:12.808Z,4.30
2023-04-03T08:10:39.580Z,3.93
2023-04-03T08:13:07.163Z,3.93
2023-04-03T08:15:34.125Z,4.10
2023-04-03T08:18:02.046Z,4.83
2023-04-03T08:20:29.728Z,5.23
2023-04-03T08:22:57.115Z,3.90
2023-04-03T08:25:23.823Z,4.43
2023-04-03T08:27:50.713Z,3.60
2023-04-03T08:30:17.674Z,4.60
2023-04-03T08:32:45.702Z,3.70
2023-04-03T08:35:13.174Z,4.43
2023-04-03T08:37:41.389Z,4.10
2023-04-03T08:40:14.358Z,3.57
2023-04-03T08:43:09.602Z,3.90
2023-04-03T08:45:46.712Z,3.87
2023-04-03T08:48:20.617Z,3.73
2023-04-03T08:50:53.040Z,3.80
2023-04-03T08:53:22.952Z,3.90
2023-04-03T08:55:51.454Z,4.20
2023-04-03T08:58:31.086Z,3.97
2023-04-03T09:01:06.845Z,4.60
2023-04-03T09:03:39.216Z,4.30
2023-04-03T09:06:11.971Z,4.40
2023-04-03T09:09:02.190Z,4.17
2023-04-03T09:11:54.914Z,4.67
2023-04-03T09:14:33.468Z,4.20
2023-04-03T09:17:04.363Z,4.03
2023-04-03T09:20:10.955Z,4.83
2023-04-03T09:22:46.181Z,4.60
2023-04-03T09:25:23.276Z,4.50
2023-04-03T09:27:52.257Z,4.67
2023-04-03T09:30:22.581Z,4.77
2023-04-03T09:32:51.796Z,4.63
2023-04-03T09:35:32.742Z,4.73
2023-04-03T09:38:14.250Z,3.83
2023-04-03T09:41:05.493Z,4.00
2023-04-03T09:43:39.962Z,4.20
2023-04-03T09:46:31.459Z,4.30
2023-04-03T09:49:08.852Z,4.50
2023-04-03T09:51:36.091Z,4.77
2023-04-03T09:54:28.328Z,5.70
2023-04-03T09:56:56.854Z,4.63
2023-04-03T09:59:23.928Z,4.60
2023-04-03T10:02:46.744Z,4.70
2023-04-03T10:05:38.178Z,4.67
2023-04-03T10:08:20.902Z,4.77
2023-04-03T10:10:50.281Z,4.10
2023-04-03T10:13:24.453Z,4.47
2023-04-03T10:16:08.042Z,4.40
2023-04-03T10:18:45.811Z,3.73
2023-04-03T10:21:28.487Z,3.80
2023-04-03T10:24:16.480Z,3.70
2023-04-03T10:27:00.170Z,4.13
2023-04-03T10:30:04.854Z,5.37
2023-04-03T10:32:32.836Z,3.77
2023-04-03T10:35:14.876Z,4.27
2023-04-03T10:37:57.058Z,4.30
2023-04-03T10:40:27.917Z,4.13
2023-04-03T10:43:18.867Z,3.97
2023-04-03T10:46:07.353Z,4.20
2023-04-03T10:48:36.787Z,4.30
2023-04-03T10:51:09.398Z,3.67
2023-04-03T10:53:46.056Z,4.20
2023-04-03T10:56:23.005Z,4.60
2023-04-03T10:58:58.903Z,5.07
2023-04-03T11:01:32.976Z,3.83
2023-04-03T11:04:02.982Z,4.07
2023-04-03T11:06:39.758Z,3.90
2023-04-03T11:09:20.956Z,3.53
2023-04-03T11:11:50.319Z,3.73
2023-04-03T11:14:33.257Z,3.77
2023-04-03T11:17:39.280Z,2.97
2023-04-03T11:20:18.460Z,2.80
2023-04-03T11:22:55.787Z,2.67
2023-04-03T11:25:26.102Z,2.40
2023-04-03T11:27:55.799Z,2.03
2023-04-03T11:30:58.266Z,2.17
2023-04-03T11:33:32.338Z,2.50
2023-04-03T11:36:12.448Z,2.23
2023-04-03T11:38:48.578Z,2.23
2023-04-03T11:41:17.471Z,2.27
2023-04-03T11:44:27.404Z,2.67
2023-04-03T11:46:57.654Z,3.00
2023-04-03T11:50:00.867Z,3.00
2023-04-03T11:52:43.703Z,3.37
2023-04-03T11:55:23.187Z,4.23
2023-04-03T11:58:02.505Z,3.37
2023-04-03T12:00:52.522Z,3.97
2023-04-03T12:03:25.901Z,4.07
2023-04-03T12:05:58.340Z,4.30
2023-04-03T12:08:25.331Z,4.23
2023-04-03T12:11:31.166Z,4.03
2023-04-03T12:13:58.033Z,4.13
2023-04-03T12:16:34.054Z,3.90
2023-04-03T12:19:04.670Z,3.50
2023-04-03T12:21:37.544Z,3.30
2023-04-03T12:24:10.827Z,3.50
2023-04-03T12:26:59.715Z,3.57
2023-04-03T12:29:34.777Z,3.27
2023-04-03T12:32:15.815Z,2.80
2023-04-03T12:34:53.890Z,3.77
2023-04-03T12:37:31.397Z,3.37
2023-04-03T12:40:39.681Z,3.33
2023-04-03T12:43:19.073Z,3.20
2023-04-03T12:46:11.023Z,3.07
2023-04-03T12:48:54.679Z,3.30
2023-04-03T12:51:30.596Z,3.23
2023-04-03T12:54:24.038Z,3.40
2023-04-03T12:56:51.638Z,3.57
2023-04-03T12:59:22.777Z,3.03
2023-04-03T13:02:03.085Z,3.20
2023-04-03T13:04:32.496Z,3.30
2023-04-03T13:07:00.192Z,3.40
2023-04-03T13:09:29.757Z,2.67
2023-04-03T13:12:04.621Z,3.00
2023-04-03T13:14:32.187Z,2.97
2023-04-03T13:17:12.559Z,2.83
2023-04-03T13:19:40.664Z,3.00
2023-04-03T13:22:26.546Z,3.00
2023-04-03T13:24:56.282Z,2.83
2023-04-03T13:27:23.905Z,2.83
2023-04-03T13:29:55.262Z,2.87
2023-04-03T13:32:25.423Z,2.90
2023-04-03T13:34:53.011Z,3.10
2023-04-03T13:37:28.909Z,3.17
2023-04-03T13:40:11.908Z,3.33
2023-04-03T13:42:43.970Z,3.77
2023-04-03T13:45:21.108Z,3.47
2023-04-03T13:47:49.966Z,4.20
2023-04-03T13:50:25.388Z,3.67
2023-04-03T13:52:55.226Z,3.40
2023-04-03T13:55:29.929Z,3.27
2023-04-03T13:58:25.355Z,3.10
2023-04-03T14:00:56.501Z,2.87
2023-04-03T14:03:27.239Z,3.27
2023-04-03T14:05:55.043Z,3.27
2023-04-03T14:08:29.422Z,3.03
2023-04-03T14:11:03.367Z,2.30
2023-04-03T14:13:31.308Z,2.97
2023-04-03T14:16:00.427Z,2.60
2023-04-03T14:18:33.140Z,2.93
2023-04-03T14:21:00.192Z,2.87
2023-04-03T14:23:26.955Z,3.53
2023-04-03T14:25:54.361Z,3.07
2023-04-03T14:28:22.756Z,2.70
2023-04-03T14:30:52.558Z,3.27
2023-04-03T14:33:22.701Z,2.63
2023-04-03T14:35:50.490Z,4.00
2023-04-03T14:38:23.492Z,4.27
2023-04-03T14:40:52.065Z,3.47
2023-04-03T14:43:21.098Z,3.90
2023-04-03T14:45:49.277Z,3.20
2023-04-03T14:48:26.661Z,3.17
2023-04-03T14:51:04.625Z,3.53
2023-04-03T14:53:38.910Z,3.70
2023-04-03T14:56:13.129Z,3.37
2023-04-03T14:58:39.861Z,2.90
2023-04-03T15:01:06.671Z,3.13
2023-04-03T15:03:33.795Z,3.00
2023-04-03T15:06:01.138Z,2.97
2023-04-03T15:08:30.626Z,2.70
2023-04-03T15:10:57.549Z,5.47
2023-04-03T15:13:26.308Z,3.70
2023-04-03T15:15:53.727Z,2.53
2023-04-03T15:18:29.101Z,2.63
2023-04-03T15:20:57.812Z,2.60
2023-04-03T15:23:29.379Z,2.60
2023-04-03T15:25:56.550Z,2.70
2023-04-03T15:28:30.977Z,2.97
2023-04-03T15:30:58.496Z,2.40
2023-04-03T15:33:26.542Z,2.43
2023-04-03T15:35:55.817Z,2.13
2023-04-03T15:38:23.060Z,2.17
2023-04-03T15:40:50.704Z,2.30
2023-04-03T15:43:18.111Z,2.20
2023-04-03T15:45:45.463Z,1.67
2023-04-03T15:48:13.125Z,1.83
2023-04-03T15:50:40.930Z,1.67
2023-04-03T15:53:08.453Z,2.00
2023-04-03T15:55:38.298Z,1.87
2023-04-03T15:58:06.087Z,2.07
2023-04-03T16:00:33.258Z,2.03
2023-04-03T16:03:09.470Z,1.73
2023-04-03T16:05:38.808Z,1.70
2023-04-03T16:08:07.682Z,2.03
2023-04-03T16:10:36.805Z,8.57
2023-04-03T16:13:05.365Z,11.37
2023-04-03T16:15:33.873Z,7.20
2023-04-03T16:18:02.183Z,7.80
2023-04-03T16:20:29.492Z,3.67
2023-04-03T16:22:59.157Z,2.90
2023-04-03T16:25:25.993Z,3.90
2023-04-03T16:27:53.621Z,2.27
2023-04-03T16:30:21.405Z,2.90
2023-04-03T16:32:48.297Z,2.23
2023-04-03T16:35:15.300Z,2.33
2023-04-03T16:37:42.172Z,3.13
2023-04-03T16:40:09.890Z,3.53
2023-04-03T16:42:37.959Z,3.47
2023-04-03T16:45:07.149Z,3.90
2023-04-03T16:47:34.231Z,14.33
2023-04-03T16:50:01.425Z,11.67
2023-04-03T16:52:28.446Z,5.13
2023-04-03T16:54:56.704Z,27.67
2023-04-03T16:57:25.840Z,5.77
2023-04-03T16:59:54.000Z,5.13
2023-04-03T17:02:25.829Z,8.70
2023-04-03T17:04:53.856Z,6.40
2023-04-03T17:07:22.557Z,4.20
2023-04-03T17:09:49.887Z,3.93
2023-04-03T17:12:17.512Z,4.00
2023-04-03T17:14:44.631Z,3.73
2023-04-03T17:17:11.475Z,3.60
2023-04-03T17:19:39.434Z,4.30
2023-04-03T17:22:06.865Z,4.13
2023-04-03T17:24:34.544Z,4.40
2023-04-03T17:27:01.929Z,3.60
2023-04-03T17:29:28.835Z,12.43
2023-04-03T17:31:55.837Z,15.43
2023-04-03T17:34:22.786Z,19.60
2023-04-03T17:36:49.674Z,11.43
2023-04-03T17:39:16.690Z,4.13
2023-04-03T17:41:45.975Z,2.80
2023-04-03T17:44:13.319Z,2.77
2023-04-03T17:46:40.689Z,2.20
2023-04-03T17:49:07.738Z,1.87
2023-04-03T17:51:34.678Z,1.50
2023-04-03T17:54:02.551Z,2.07
2023-04-03T17:56:29.356Z,1.57
2023-04-03T17:58:58.516Z,2.00
2023-04-03T18:01:28.562Z,1.87
2023-04-03T18:03:57.423Z,1.90
2023-04-03T18:06:28.074Z,1.60
2023-04-03T18:08:58.975Z,1.20
2023-04-03T18:11:28.506Z,1.50
2023-04-03T18:14:00.177Z,1.43
2023-04-03T18:16:28.082Z,1.77
2023-04-03T18:19:06.802Z,1.40
2023-04-03T18:21:42.054Z,1.50
2023-04-03T18:24:13.350Z,1.90
2023-04-03T18:26:43.475Z,2.03
2023-04-03T18:29:11.969Z,1.47
2023-04-03T18:31:41.908Z,1.23
2023-04-03T18:34:08.713Z,1.30
2023-04-03T18:36:35.638Z,1.97
2023-04-03T18:39:03.839Z,2.00
2023-04-03T18:41:33.849Z,2.10
2023-04-03T18:44:03.883Z,1.90
2023-04-03T18:46:32.781Z,2.17
2023-04-03T18:48:59.822Z,2.87
2023-04-03T18:51:27.565Z,3.40
2023-04-03T18:53:54.441Z,3.53
2023-04-03T18:56:23.011Z,2.70
2023-04-03T18:58:49.889Z,2.53
2023-04-03T19:01:17.171Z,3.57
2023-04-03T19:03:44.263Z,3.60
2023-04-03T19:06:11.434Z,3.63
2023-04-03T19:08:38.495Z,3.00
2023-04-03T19:11:05.268Z,2.63
2023-04-03T19:13:32.662Z,2.40
2023-04-03T19:16:00.083Z,3.03
2023-04-03T19:18:27.774Z,3.83
2023-04-03T19:20:56.354Z,3.20
2023-04-03T19:23:24.491Z,2.80
2023-04-03T19:26:01.928Z,3.10
2023-04-03T19:28:29.272Z,3.20
2023-04-03T19:30:57.976Z,2.50
2023-04-03T19:33:25.295Z,2.70
2023-04-03T19:35:53.104Z,2.80
2023-04-03T19:38:20.092Z,2.73
2023-04-03T19:40:47.461Z,3.00
2023-04-03T19:43:16.887Z,3.33
2023-04-03T19:45:46.178Z,2.87
2023-04-03T19:48:13.710Z,2.70
2023-04-03T19:50:40.886Z,2.93
2023-04-03T19:53:09.851Z,2.93
2023-04-03T19:55:37.593Z,3.00
2023-04-03T19:58:04.749Z,2.93
2023-04-03T20:00:32.239Z,3.50
2023-04-03T20:02:59.202Z,3.13
2023-04-03T20:05:26.241Z,3.40
2023-04-03T20:07:53.740Z,3.50
2023-04-03T20:10:20.715Z,3.03
2023-04-03T20:12:47.938Z,2.63
2023-04-03T20:15:14.762Z,3.00
2023-04-03T20:17:42.166Z,3.03
2023-04-03T20:20:09.945Z,3.60
2023-04-03T20:22:38.680Z,3.90
2023-04-03T20:25:09.399Z,2.90
2023-04-03T20:27:36.736Z,3.40
2023-04-03T20:30:08.853Z,3.07
2023-04-03T20:32:35.936Z,3.33
2023-04-03T20:35:04.572Z,3.30
2023-04-03T20:37:32.661Z,2.80
2023-04-03T20:39:59.539Z,2.73
2023-04-03T20:42:26.852Z,2.67
2023-04-03T20:44:57.310Z,3.13
2023-04-03T20:47:24.361Z,3.17
2023-04-03T20:49:53.903Z,2.87
2023-04-03T20:52:20.865Z,2.90
2023-04-03T20:54:48.013Z,2.90
2023-04-03T20:57:15.520Z,2.70
2023-04-03T20:59:42.691Z,3.10
2023-04-03T21:02:09.476Z,3.27
2023-04-03T21:04:48.695Z,3.00
2023-04-03T21:07:53.390Z,3.80
2023-04-03T21:10:57.562Z,3.33
2023-04-03T21:14:01.888Z,3.60
2023-04-03T21:16:28.564Z,3.87
2023-04-03T21:19:20.051Z,3.70
2023-04-03T21:21:47.238Z,3.87
2023-04-03T21:24:17.085Z,4.20
2023-04-03T21:26:44.273Z,3.50
2023-04-03T21:29:11.567Z,3.40
2023-04-03T21:31:47.234Z,3.43
2023-04-03T21:34:18.480Z,3.07
2023-04-03T21:36:45.699Z,3.70
2023-04-03T21:39:12.853Z,3.30
2023-04-03T21:41:39.680Z,3.43
2023-04-03T21:44:07.499Z,3.50
2023-04-03T21:46:34.521Z,3.90
2023-04-03T21:49:01.469Z,3.43
2023-04-03T21:51:28.947Z,3.10
2023-04-03T21:53:56.505Z,2.90
2023-04-03T21:56:24.426Z,3.33
2023-04-03T21:58:52.069Z,3.13
2023-04-03T22:01:20.218Z,3.70
2023-04-03T22:03:47.423Z,2.90
2023-04-03T22:06:16.479Z,2.70
2023-04-03T22:08:44.207Z,3.30
2023-04-03T22:11:14.045Z,3.23
2023-04-03T22:13:41.920Z,3.43
2023-04-03T22:16:11.309Z,2.93
2023-04-03T22:18:39.910Z,3.23
2023-04-03T22:21:08.653Z,2.93
2023-04-03T22:23:35.856Z,3.07
2023-04-03T22:26:05.856Z,2.57
2023-04-03T22:28:35.413Z,3.70
2023-04-03T22:31:09.056Z,2.50
2023-04-03T22:33:39.900Z,3.27
2023-04-03T22:36:09.916Z,4.30
2023-04-03T22:38:37.581Z,2.87
2023-04-03T22:41:06.508Z,2.70
2023-04-03T22:43:36.359Z,3.57
2023-04-03T22:46:05.371Z,2.60
2023-04-03T22:48:32.124Z,3.07
2023-04-03T22:51:02.446Z,3.20
2023-04-03T22:53:29.327Z,3.10
2023-04-03T22:56:00.146Z,3.43
2023-04-03T22:58:27.985Z,3.13
2023-04-03T23:01:08.382Z,3.27
2023-04-03T23:03:36.609Z,3.00
2023-04-03T23:06:05.047Z,3.37
2023-04-03T23:08:34.544Z,2.73
2023-04-03T23:11:02.383Z,2.70
2023-04-03T23:13:29.882Z,2.30
2023-04-03T23:15:57.899Z,2.80
2023-04-03T23:18:26.152Z,2.30
2023-04-03T23:20:55.360Z,2.37
2023-04-03T23:23:24.546Z,2.23
2023-04-03T23:25:52.922Z,2.10
2023-04-03T23:28:20.271Z,2.40
2023-04-03T23:30:47.520Z,2.27
2023-04-03T23:33:14.540Z,2.77
2023-04-03T23:35:48.203Z,3.00
2023-04-03T23:38:15.863Z,2.73
2023-04-03T23:40:43.056Z,2.40
2023-04-03T23:43:11.185Z,2.77
2023-04-03T23:45:38.428Z,2.80
2023-04-03T23:48:06.233Z,3.10
2023-04-03T23:50:33.478Z,2.63
2023-04-03T23:53:00.985Z,2.50
2023-04-03T23:55:27.811Z,2.83
2023-04-03T23:57:54.863Z,2.50
